createdAt,value
2022-08-20T00:01:42.646Z,97644.22
2022-08-20T00:04:10.101Z,97652.44
2022-08-20T00:06:40.505Z,97656.94
2022-08-20T00:09:07.948Z,97671.91
2022-08-20T00:11:35.626Z,97685.84
2022-08-20T00:14:06.128Z,97692.16
2022-08-20T00:16:37.235Z,97702.19
2022-08-20T00:19:08.729Z,97686.41
2022-08-20T00:21:37.335Z,97698.91
2022-08-20T00:24:05.791Z,97707.75
2022-08-20T00:26:34.273Z,97698.09
2022-08-20T00:29:01.491Z,97703.81
2022-08-20T00:31:29.089Z,97702.97
2022-08-20T00:33:56.649Z,97702.78
2022-08-20T00:36:29.986Z,97700.72
2022-08-20T00:39:00.563Z,97696.00
2022-08-20T00:41:29.036Z,97679.59
2022-08-20T00:44:22.078Z,97680.84
2022-08-20T00:46:51.303Z,97673.28
2022-08-20T00:49:26.804Z,97672.63
2022-08-20T00:52:02.792Z,97668.13
2022-08-20T00:54:41.755Z,97674.47
2022-08-20T00:57:24.749Z,97668.72
2022-08-20T00:59:53.709Z,97665.66
2022-08-20T01:02:27.619Z,97646.13
2022-08-20T01:04:56.741Z,97641.22
2022-08-20T01:07:36.666Z,97632.16
2022-08-20T01:10:14.137Z,97628.41
2022-08-20T01:12:49.153Z,97633.31
2022-08-20T01:15:31.170Z,97633.72
2022-08-20T01:18:02.018Z,97649.50
2022-08-20T01:20:43.115Z,97657.66
2022-08-20T01:23:31.342Z,97669.94
2022-08-20T01:26:21.318Z,97654.78
2022-08-20T01:29:03.976Z,97649.06
2022-08-20T01:31:35.813Z,97656.44
2022-08-20T01:34:08.776Z,97669.31
2022-08-20T01:36:46.272Z,97669.13
2022-08-20T01:39:20.340Z,97665.66
2022-08-20T01:42:07.834Z,97673.19
2022-08-20T01:44:38.595Z,97660.47
2022-08-20T01:47:20.847Z,97663.75
2022-08-20T01:49:55.835Z,97656.78
2022-08-20T01:52:36.983Z,97655.56
2022-08-20T01:55:06.667Z,97647.97
2022-08-20T01:57:36.440Z,97640.59
2022-08-20T02:00:19.884Z,97653.09
2022-08-20T02:02:47.867Z,97651.00
2022-08-20T02:05:15.670Z,97655.72
2022-08-20T02:07:43.108Z,97657.13
2022-08-20T02:10:15.307Z,97657.50
2022-08-20T02:12:43.027Z,97642.34
2022-08-20T02:15:12.567Z,97649.75
2022-08-20T02:17:41.910Z,97648.06
2022-08-20T02:20:27.606Z,97655.03
2022-08-20T02:22:58.848Z,97637.41
2022-08-20T02:25:30.943Z,97628.44
2022-08-20T02:28:01.428Z,97634.41
2022-08-20T02:30:39.491Z,97639.09
2022-08-20T02:33:10.841Z,97630.09
2022-08-20T02:35:42.812Z,97628.44
2022-08-20T02:38:11.401Z,97629.69
2022-08-20T02:40:39.917Z,97643.81
2022-08-20T02:43:07.786Z,97651.19
2022-08-20T02:45:43.622Z,97652.56
2022-08-20T02:48:21.010Z,97650.72
2022-08-20T02:50:57.405Z,97644.63
2022-08-20T02:53:26.983Z,97635.47
2022-08-20T02:55:54.470Z,97632.03
2022-08-20T02:58:24.040Z,97626.91
2022-08-20T03:00:51.976Z,97616.66
2022-08-20T03:03:22.695Z,97627.53
2022-08-20T03:05:57.151Z,97619.53
2022-08-20T03:08:26.111Z,97611.34
2022-08-20T03:10:53.481Z,97605.19
2022-08-20T03:13:23.466Z,97614.00
2022-08-20T03:15:59.042Z,97615.84
2022-08-20T03:18:37.007Z,97620.53
2022-08-20T03:21:07.747Z,97617.84
2022-08-20T03:23:40.485Z,97630.56
2022-08-20T03:26:11.604Z,97628.91
2022-08-20T03:28:39.338Z,97627.28
2022-08-20T03:31:07.367Z,97622.38
2022-08-20T03:33:35.657Z,97616.25
2022-08-20T03:36:03.179Z,97615.69
2022-08-20T03:38:33.048Z,97606.25
2022-08-20T03:41:03.023Z,97607.31
2022-08-20T03:43:31.295Z,97617.78
2022-08-20T03:45:59.009Z,97621.09
2022-08-20T03:48:26.679Z,97616.56
2022-08-20T03:50:54.131Z,97599.34
2022-08-20T03:53:21.405Z,97602.25
2022-08-20T03:55:54.419Z,97600.00
2022-08-20T03:58:31.601Z,97588.75
2022-08-20T04:01:06.506Z,97578.69
2022-08-20T04:03:35.341Z,97568.03
2022-08-20T04:06:03.015Z,97564.13
2022-08-20T04:08:31.195Z,97547.13
2022-08-20T04:10:59.877Z,97551.00
2022-08-20T04:13:30.062Z,97563.50
2022-08-20T04:16:01.013Z,97570.06
2022-08-20T04:18:28.426Z,97567.59
2022-08-20T04:20:55.842Z,97574.78
2022-08-20T04:23:23.485Z,97591.38
2022-08-20T04:25:51.069Z,97587.09
2022-08-20T04:28:27.447Z,97575.41
2022-08-20T04:31:01.020Z,97563.53
2022-08-20T04:33:33.503Z,97557.78
2022-08-20T04:36:06.293Z,97534.00
2022-08-20T04:38:50.683Z,97555.53
2022-08-20T04:41:24.146Z,97554.91
2022-08-20T04:43:54.663Z,97570.31
2022-08-20T04:46:26.157Z,97579.75
2022-08-20T04:48:54.863Z,97582.63
2022-08-20T04:51:24.205Z,97597.22
2022-08-20T04:53:54.427Z,97597.44
2022-08-20T04:56:26.074Z,97601.56
2022-08-20T04:58:57.184Z,97601.38
2022-08-20T05:01:26.260Z,97610.44
2022-08-20T05:03:55.851Z,97604.69
2022-08-20T05:06:30.819Z,97606.34
2022-08-20T05:09:00.864Z,97606.97
2022-08-20T05:11:33.831Z,97604.28
2022-08-20T05:14:08.898Z,97590.72
2022-08-20T05:16:39.785Z,97583.75
2022-08-20T05:19:11.646Z,97580.00
2022-08-20T05:21:40.012Z,97583.09
2022-08-20T05:24:10.285Z,97590.66
2022-08-20T05:26:37.711Z,97589.31
2022-08-20T05:29:07.005Z,97590.50
2022-08-20T05:31:35.358Z,97596.03
2022-08-20T05:34:11.038Z,97602.13
2022-08-20T05:36:49.768Z,97603.97
2022-08-20T05:39:22.904Z,97596.91
2022-08-20T05:42:11.340Z,97608.03
2022-08-20T05:44:39.038Z,97606.72
2022-08-20T05:47:06.976Z,97600.50
2022-08-20T05:49:34.188Z,97597.56
2022-08-20T05:52:01.868Z,97593.84
2022-08-20T05:54:32.624Z,97604.13
2022-08-20T05:56:59.954Z,97597.31
2022-08-20T05:59:27.695Z,97610.94
2022-08-20T06:01:55.150Z,97608.03
2022-08-20T06:04:25.177Z,97598.47
2022-08-20T06:07:02.848Z,97603.28
2022-08-20T06:09:32.731Z,97611.59
2022-08-20T06:12:04.566Z,97611.31
2022-08-20T06:14:33.448Z,97625.09
2022-08-20T06:17:13.723Z,97618.59
2022-08-20T06:19:45.917Z,97619.41
2022-08-20T06:22:18.961Z,97617.69
2022-08-20T06:24:55.116Z,97616.03
2022-08-20T06:27:22.836Z,97600.56
2022-08-20T06:29:51.420Z,97602.16
2022-08-20T06:32:28.782Z,97600.78
2022-08-20T06:35:02.386Z,97604.91
2022-08-20T06:37:32.418Z,97597.47
2022-08-20T06:40:28.697Z,97595.59
2022-08-20T06:42:57.816Z,97605.66
2022-08-20T06:45:30.367Z,97619.22
2022-08-20T06:48:01.412Z,97617.91
2022-08-20T06:50:47.018Z,97623.00
2022-08-20T06:53:20.746Z,97635.72
2022-08-20T06:55:55.386Z,97632.66
2022-08-20T06:58:36.691Z,97637.75
2022-08-20T07:01:11.992Z,97636.63
2022-08-20T07:03:55.697Z,97632.16
2022-08-20T07:06:25.985Z,97630.47
2022-08-20T07:08:55.979Z,97630.63
2022-08-20T07:11:28.194Z,97634.78
2022-08-20T07:13:58.890Z,97634.44
2022-08-20T07:16:27.439Z,97632.41
2022-08-20T07:18:54.981Z,97643.03
2022-08-20T07:21:22.547Z,97643.25
2022-08-20T07:23:49.969Z,97641.50
2022-08-20T07:26:17.925Z,97637.25
2022-08-20T07:28:46.990Z,97644.28
2022-08-20T07:31:34.834Z,97656.03
2022-08-20T07:34:03.973Z,97657.06
2022-08-20T07:36:33.054Z,97652.84
2022-08-20T07:39:05.664Z,97655.81
2022-08-20T07:41:34.214Z,97656.69
2022-08-20T07:44:01.773Z,97658.41
2022-08-20T07:46:31.281Z,97656.50
2022-08-20T07:48:59.706Z,97659.16
2022-08-20T07:51:27.589Z,97647.38
2022-08-20T07:53:54.989Z,97648.84
2022-08-20T07:56:24.753Z,97650.22
2022-08-20T07:58:56.706Z,97650.69
2022-08-20T08:01:31.014Z,97652.13
2022-08-20T08:04:00.167Z,97659.59
2022-08-20T08:06:31.573Z,97659.94
2022-08-20T08:09:07.485Z,97659.44
2022-08-20T08:11:40.110Z,97656.84
2022-08-20T08:14:11.221Z,97642.13
2022-08-20T08:16:39.512Z,97648.19
2022-08-20T08:19:12.073Z,97642.69
2022-08-20T08:21:39.820Z,97635.44
2022-08-20T08:24:07.235Z,97635.47
2022-08-20T08:26:34.548Z,97634.66
2022-08-20T08:29:02.732Z,97634.84
2022-08-20T08:31:30.434Z,97638.59
2022-08-20T08:33:57.725Z,97642.03
2022-08-20T08:36:26.881Z,97652.00
2022-08-20T08:38:56.023Z,97652.91
2022-08-20T08:41:36.494Z,97670.25
2022-08-20T08:44:35.668Z,97670.19
2022-08-20T08:47:18.765Z,97670.75
2022-08-20T08:49:48.258Z,97672.22
2022-08-20T08:52:33.079Z,97676.16
2022-08-20T08:55:06.581Z,97679.28
2022-08-20T08:57:34.445Z,97664.19
2022-08-20T09:00:16.482Z,97668.72
2022-08-20T09:03:17.595Z,97667.28
2022-08-20T09:05:52.588Z,97673.06
2022-08-20T09:08:27.405Z,97661.94
2022-08-20T09:10:55.676Z,97655.81
2022-08-20T09:13:22.940Z,97669.97
2022-08-20T09:15:51.440Z,97681.28
2022-08-20T09:18:18.952Z,97680.84
2022-08-20T09:21:37.130Z,97684.06
2022-08-20T09:24:08.406Z,97669.31
2022-08-20T09:26:41.840Z,97664.34
2022-08-20T09:29:10.438Z,97658.69
2022-08-20T09:31:38.206Z,97660.53
2022-08-20T09:34:06.487Z,97650.16
2022-08-20T09:36:34.000Z,97656.44
2022-08-20T09:39:02.823Z,97655.97
2022-08-20T09:41:33.534Z,97658.97
2022-08-20T09:44:02.612Z,97644.69
2022-08-20T09:46:29.909Z,97644.25
2022-08-20T09:48:57.190Z,97637.72
2022-08-20T09:51:25.344Z,97648.56
2022-08-20T09:53:53.014Z,97648.59
2022-08-20T09:56:20.378Z,97660.59
2022-08-20T09:58:56.533Z,97668.38
2022-08-20T10:01:26.374Z,97659.81
2022-08-20T10:03:54.036Z,97654.34
2022-08-20T10:06:22.169Z,97650.25
2022-08-20T10:08:50.466Z,97643.84
2022-08-20T10:11:19.004Z,97634.50
2022-08-20T10:13:46.511Z,97634.56
2022-08-20T10:16:14.246Z,97633.31
2022-08-20T10:18:42.094Z,97629.13
2022-08-20T10:21:11.762Z,97626.75
2022-08-20T10:23:39.187Z,97620.88
2022-08-20T10:26:09.774Z,97629.06
2022-08-20T10:28:37.817Z,97627.59
2022-08-20T10:31:13.237Z,97631.19
2022-08-20T10:33:43.402Z,97630.66
2022-08-20T10:36:16.935Z,97637.16
2022-08-20T10:38:46.912Z,97637.13
2022-08-20T10:41:15.808Z,97631.06
2022-08-20T10:43:44.885Z,97631.47
2022-08-20T10:46:12.764Z,97634.53
2022-08-20T10:48:41.138Z,97635.25
2022-08-20T10:51:09.064Z,97645.75
2022-08-20T10:53:36.996Z,97650.94
2022-08-20T10:56:04.992Z,97656.88
2022-08-20T10:58:39.662Z,97654.66
2022-08-20T11:01:08.098Z,97663.19
2022-08-20T11:03:35.987Z,97650.38
2022-08-20T11:06:03.843Z,97643.53
2022-08-20T11:08:34.231Z,97643.53
2022-08-20T11:11:05.715Z,97646.19
2022-08-20T11:13:35.520Z,97654.75
2022-08-20T11:16:04.430Z,97655.00
2022-08-20T11:18:32.135Z,97655.16
2022-08-20T11:21:00.168Z,97661.84
2022-08-20T11:23:28.171Z,97646.41
2022-08-20T11:25:58.284Z,97642.47
2022-08-20T11:28:30.903Z,97639.94
2022-08-20T11:31:01.223Z,97651.13
2022-08-20T11:33:32.132Z,97632.78
2022-08-20T11:35:59.401Z,97644.09
2022-08-20T11:38:27.182Z,97637.22
2022-08-20T11:40:54.762Z,97633.91
2022-08-20T11:43:22.076Z,97627.22
2022-08-20T11:45:55.469Z,97627.06
2022-08-20T11:48:23.890Z,97626.16
2022-08-20T11:50:52.641Z,97631.81
2022-08-20T11:53:20.217Z,97618.78
2022-08-20T11:55:50.157Z,97610.56
2022-08-20T11:58:18.186Z,97605.56
2022-08-20T12:00:45.532Z,97604.69
2022-08-20T12:03:13.232Z,97597.56
2022-08-20T12:05:44.970Z,97599.47
2022-08-20T12:08:26.824Z,97601.41
2022-08-20T12:10:59.431Z,97607.06
2022-08-20T12:13:30.822Z,97606.09
2022-08-20T12:16:18.720Z,97607.22
2022-08-20T12:18:47.846Z,97607.75
2022-08-20T12:21:16.467Z,97602.47
2022-08-20T12:23:44.367Z,97594.72
2022-08-20T12:26:12.018Z,97584.88
2022-08-20T12:28:39.363Z,97591.28
2022-08-20T12:31:07.038Z,97581.59
2022-08-20T12:33:34.566Z,97588.06
2022-08-20T12:36:02.033Z,97593.31
2022-08-20T12:38:29.622Z,97598.91
2022-08-20T12:40:56.876Z,97600.06
2022-08-20T12:43:25.139Z,97602.25
2022-08-20T12:45:53.542Z,97612.63
2022-08-20T12:48:21.218Z,97625.06
2022-08-20T12:50:50.357Z,97625.31
2022-08-20T12:53:18.630Z,97619.34
2022-08-20T12:55:47.088Z,97615.66
2022-08-20T12:58:14.480Z,97607.06
2022-08-20T13:00:50.321Z,97613.28
2022-08-20T13:03:20.047Z,97613.72
2022-08-20T13:05:49.186Z,97619.94
2022-08-20T13:08:19.568Z,97641.38
2022-08-20T13:10:47.271Z,97662.03
2022-08-20T13:13:20.417Z,97687.19
2022-08-20T13:15:50.387Z,97710.25
2022-08-20T13:18:19.431Z,97704.50
2022-08-20T13:20:47.738Z,97703.94
2022-08-20T13:23:15.408Z,97714.59
2022-08-20T13:25:43.007Z,97712.94
2022-08-20T13:28:10.356Z,97720.09
2022-08-20T13:30:38.905Z,97718.25
2022-08-20T13:33:06.484Z,97719.91
2022-08-20T13:35:33.915Z,97711.44
2022-08-20T13:38:01.389Z,97702.81
2022-08-20T13:40:28.940Z,97704.84
2022-08-20T13:42:56.505Z,97695.78
2022-08-20T13:45:23.921Z,97687.94
2022-08-20T13:47:55.066Z,97675.19
2022-08-20T13:50:25.710Z,97675.16
2022-08-20T13:52:53.601Z,97684.16
2022-08-20T13:55:24.237Z,97692.53
2022-08-20T13:57:52.800Z,97697.44
2022-08-20T14:00:31.923Z,97699.09
2022-08-20T14:03:02.400Z,97717.94
2022-08-20T14:05:31.865Z,97711.50
2022-08-20T14:08:20.612Z,97719.50
2022-08-20T14:10:51.584Z,97709.03
2022-08-20T14:13:22.883Z,97710.53
2022-08-20T14:15:51.357Z,97705.56
2022-08-20T14:18:25.838Z,97698.38
2022-08-20T14:20:53.354Z,97695.38
2022-08-20T14:23:20.707Z,97696.66
2022-08-20T14:25:50.310Z,97701.78
2022-08-20T14:28:24.435Z,97706.94
2022-08-20T14:30:53.083Z,97703.06
2022-08-20T14:33:24.659Z,97702.00
2022-08-20T14:35:53.302Z,97707.66
2022-08-20T14:38:20.830Z,97690.44
2022-08-20T14:40:51.075Z,97700.44
2022-08-20T14:43:18.645Z,97687.34
2022-08-20T14:45:46.060Z,97688.69
2022-08-20T14:48:15.070Z,97690.50
2022-08-20T14:50:42.597Z,97680.28
2022-08-20T14:53:09.883Z,97671.47
2022-08-20T14:55:38.221Z,97658.16
2022-08-20T14:58:14.013Z,97644.63
2022-08-20T15:00:43.527Z,97646.84
2022-08-20T15:03:13.460Z,97650.53
2022-08-20T15:05:40.780Z,97650.72
2022-08-20T15:08:10.550Z,97637.00
2022-08-20T15:10:39.315Z,97631.31
2022-08-20T15:13:07.617Z,97627.84
2022-08-20T15:15:35.456Z,97626.97
2022-08-20T15:18:03.569Z,97623.28
2022-08-20T15:20:34.048Z,97623.06
2022-08-20T15:23:02.512Z,97610.72
2022-08-20T15:25:36.815Z,97619.75
2022-08-20T15:28:09.421Z,97606.84
2022-08-20T15:30:40.996Z,97607.03
2022-08-20T15:33:10.665Z,97612.16
2022-08-20T15:35:38.273Z,97604.56
2022-08-20T15:38:05.548Z,97602.31
2022-08-20T15:40:34.062Z,97593.91
2022-08-20T15:43:04.828Z,97588.09
2022-08-20T15:45:33.551Z,97582.97
2022-08-20T15:48:19.328Z,97576.19
2022-08-20T15:51:28.810Z,97566.94
2022-08-20T15:54:08.314Z,97584.25
2022-08-20T15:56:58.382Z,97587.53
2022-08-20T16:00:02.700Z,97594.50
2022-08-20T16:03:18.961Z,97591.09
2022-08-20T16:06:31.388Z,97597.50
2022-08-20T16:09:32.928Z,97591.84
2022-08-20T16:12:19.594Z,97578.97
2022-08-20T16:14:52.727Z,97579.06
2022-08-20T16:17:58.246Z,97585.19
2022-08-20T16:20:47.748Z,97576.00
2022-08-20T16:23:20.117Z,97578.47
2022-08-20T16:26:44.202Z,97595.25
2022-08-20T16:29:51.242Z,97606.50
2022-08-20T16:32:31.983Z,97609.72
2022-08-20T16:35:10.481Z,97617.16
2022-08-20T16:38:11.225Z,97612.06
2022-08-20T16:41:06.783Z,97619.25
2022-08-20T16:44:03.996Z,97611.41
2022-08-20T16:46:42.406Z,97607.03
2022-08-20T16:49:15.302Z,97614.78
2022-08-20T16:51:52.983Z,97609.16
2022-08-20T16:54:29.428Z,97604.91
2022-08-20T16:57:04.513Z,97605.94
2022-08-20T16:59:33.375Z,97607.53
2022-08-20T17:02:18.731Z,97614.78
2022-08-20T17:04:59.051Z,97613.78
2022-08-20T17:07:51.325Z,97610.66
2022-08-20T17:10:31.211Z,97618.91
2022-08-20T17:13:06.166Z,97619.91
2022-08-20T17:15:35.545Z,97628.97
2022-08-20T17:18:25.765Z,97618.97
2022-08-20T17:20:53.147Z,97629.44
2022-08-20T17:23:22.909Z,97621.88
2022-08-20T17:26:21.108Z,97630.56
2022-08-20T17:28:55.753Z,97637.78
2022-08-20T17:31:45.463Z,97641.06
2022-08-20T17:34:46.278Z,97639.56
2022-08-20T17:37:36.208Z,97630.34
2022-08-20T17:40:26.708Z,97636.56
2022-08-20T17:43:08.055Z,97637.44
2022-08-20T17:45:45.282Z,97645.66
2022-08-20T17:48:23.388Z,97648.53
2022-08-20T17:50:53.835Z,97652.41
2022-08-20T17:53:35.936Z,97661.16
2022-08-20T17:56:19.778Z,97660.66
2022-08-20T17:59:59.954Z,97656.03
2022-08-20T18:02:18.150Z,97654.00
2022-08-20T18:04:55.778Z,97650.66
2022-08-20T18:07:38.835Z,97655.88
2022-08-20T18:10:13.905Z,97653.22
2022-08-20T18:13:10.266Z,97648.09
2022-08-20T18:15:55.656Z,97635.03
2022-08-20T18:18:54.989Z,97633.28
2022-08-20T18:22:00.758Z,97639.22
2022-08-20T18:24:56.718Z,97632.91
2022-08-20T18:27:37.840Z,97638.09
2022-08-20T18:30:21.747Z,97632.41
2022-08-20T18:33:07.318Z,97638.59
2022-08-20T18:35:45.924Z,97637.63
2022-08-20T18:38:29.204Z,97636.38
2022-08-20T18:41:08.232Z,97645.13
2022-08-20T18:43:36.564Z,97649.59
2022-08-20T18:46:20.115Z,97642.41
2022-08-20T18:48:55.230Z,97654.91
2022-08-20T18:51:35.436Z,97664.25
2022-08-20T18:54:04.602Z,97672.22
2022-08-20T18:56:42.134Z,97684.28
2022-08-20T18:59:20.097Z,97679.50
2022-08-20T19:01:50.785Z,97684.00
2022-08-20T19:04:26.555Z,97690.91
2022-08-20T19:07:06.441Z,97685.88
2022-08-20T19:09:36.437Z,97686.09
2022-08-20T19:12:28.144Z,97691.78
2022-08-20T19:15:19.097Z,97696.81
2022-08-20T19:18:17.165Z,97697.84
2022-08-20T19:20:56.101Z,97693.53
2022-08-20T19:23:29.204Z,97677.19
2022-08-20T19:26:25.439Z,97677.47
2022-08-20T19:29:02.324Z,97673.88
2022-08-20T19:31:33.678Z,97664.25
2022-08-20T19:34:20.015Z,97665.75
2022-08-20T19:37:35.466Z,97656.66
2022-08-20T19:40:18.529Z,97669.59
2022-08-20T19:42:46.603Z,97663.91
2022-08-20T19:45:32.524Z,97652.53
2022-08-20T19:48:27.153Z,97653.03
2022-08-20T19:51:09.849Z,97650.66
2022-08-20T19:53:44.887Z,97660.50
2022-08-20T19:56:21.839Z,97663.81
2022-08-20T19:59:09.370Z,97660.69
2022-08-20T20:01:37.402Z,97659.94
2022-08-20T20:04:17.610Z,97644.81
2022-08-20T20:06:48.627Z,97648.38
2022-08-20T20:09:22.166Z,97642.28
2022-08-20T20:11:56.511Z,97637.19
2022-08-20T20:14:34.007Z,97633.50
2022-08-20T20:17:14.417Z,97641.13
2022-08-20T20:20:00.848Z,97641.13
2022-08-20T20:22:47.139Z,97638.28
2022-08-20T20:25:26.863Z,97640.28
2022-08-20T20:28:06.077Z,97643.97
2022-08-20T20:30:35.294Z,97646.47
2022-08-20T20:33:30.692Z,97639.44
2022-08-20T20:36:29.987Z,97635.56
2022-08-20T20:39:09.244Z,97627.16
2022-08-20T20:41:38.939Z,97637.44
2022-08-20T20:44:20.290Z,97642.94
2022-08-20T20:46:51.805Z,97633.38
2022-08-20T20:49:31.913Z,97636.84
2022-08-20T20:52:25.042Z,97639.09
2022-08-20T20:55:22.933Z,97646.63
2022-08-20T20:57:51.838Z,97643.72
2022-08-20T21:00:23.743Z,97645.13
2022-08-20T21:02:51.120Z,97639.63
2022-08-20T21:05:23.285Z,97640.44
2022-08-20T21:08:01.715Z,97637.59
2022-08-20T21:10:36.555Z,97641.25
2022-08-20T21:13:08.074Z,97638.22
2022-08-20T21:15:38.143Z,97641.13
2022-08-20T21:18:09.369Z,97644.16
2022-08-20T21:20:37.759Z,97639.03
2022-08-20T21:23:05.928Z,97639.03
2022-08-20T21:25:35.667Z,97635.56
2022-08-20T21:28:04.015Z,97633.09
2022-08-20T21:30:31.983Z,97626.47
2022-08-20T21:32:59.957Z,97634.66
2022-08-20T21:35:28.288Z,97637.72
2022-08-20T21:38:00.671Z,97636.44
2022-08-20T21:40:28.358Z,97638.47
2022-08-20T21:42:56.378Z,97632.31
2022-08-20T21:45:23.861Z,97628.44
2022-08-20T21:47:56.382Z,97613.16
2022-08-20T21:50:24.552Z,97602.50
2022-08-20T21:52:59.306Z,97600.47
2022-08-20T21:55:39.258Z,97593.31
2022-08-20T21:58:08.749Z,97584.69
2022-08-20T22:00:48.649Z,97580.34
2022-08-20T22:03:20.109Z,97584.22
2022-08-20T22:05:48.411Z,97583.94
2022-08-20T22:08:16.636Z,97592.13
2022-08-20T22:10:44.273Z,97599.28
2022-08-20T22:13:12.425Z,97608.28
2022-08-20T22:15:39.873Z,97602.97
2022-08-20T22:18:08.052Z,97604.97
2022-08-20T22:20:36.581Z,97604.53
2022-08-20T22:23:06.371Z,97605.56
2022-08-20T22:25:34.494Z,97602.06
2022-08-20T22:28:02.336Z,97609.03
2022-08-20T22:30:30.154Z,97600.44
2022-08-20T22:33:09.851Z,97596.06
2022-08-20T22:35:39.706Z,97600.09
2022-08-20T22:38:06.884Z,97605.97
2022-08-20T22:40:34.108Z,97602.47
2022-08-20T22:43:01.597Z,97593.13
2022-08-20T22:45:29.113Z,97581.94
2022-08-20T22:47:56.650Z,97576.03
2022-08-20T22:50:25.262Z,97579.78
2022-08-20T22:52:53.476Z,97581.69
2022-08-20T22:55:21.102Z,97582.50
2022-08-20T22:57:48.803Z,97588.25
2022-08-20T23:00:18.497Z,97589.66
2022-08-20T23:02:53.967Z,97599.72
2022-08-20T23:05:25.723Z,97616.44
2022-08-20T23:07:55.722Z,97615.50
2022-08-20T23:10:25.415Z,97614.75
2022-08-20T23:12:52.980Z,97608.78
2022-08-20T23:15:20.538Z,97615.47
2022-08-20T23:17:48.038Z,97621.63
2022-08-20T23:20:18.234Z,97616.72
2022-08-20T23:22:45.728Z,97612.13
2022-08-20T23:25:15.644Z,97615.34
2022-08-20T23:27:48.806Z,97624.63
2022-08-20T23:30:19.345Z,97622.59
2022-08-20T23:32:47.122Z,97613.44
2022-08-20T23:35:14.914Z,97612.03
2022-08-20T23:37:50.051Z,97597.75
2022-08-20T23:40:20.567Z,97604.81
2022-08-20T23:42:57.628Z,97598.41
2022-08-20T23:45:25.717Z,97608.69
2022-08-20T23:47:53.370Z,97591.56
2022-08-20T23:50:27.576Z,97597.69
2022-08-20T23:52:56.798Z,97599.31
2022-08-20T23:55:24.829Z,97603.09
2022-08-20T23:57:52.808Z,97593.19
